Time,TemperatureF,DewpointF,PressureIn,WindDirection,WindDirectionDegrees,WindSpeedMPH,WindSpeedGustMPH,Humidity,HourlyPrecipIn,Conditions,Clouds,dailyrainin,SolarRadiationWatts/m^2,SoftwareType,DateUTC
2013-03-17 00:12:00,61.0,40.0,-100.00,WNW,295,23.0,38.0,45,0.00,,,0.00,0.000000,,2013-03-17 07:12:00,
2013-03-17 00:22:00,61.0,40.0,-100.00,WNW,295,23.0,38.0,45,0.00,,,0.00,0.000000,,2013-03-17 07:22:00,
2013-03-17 00:32:00,61.0,40.0,-100.00,WNW,295,23.0,38.0,45,0.00,,,0.00,0.000000,,2013-03-17 07:32:00,
2013-03-17 00:42:00,61.0,40.0,-100.00,WNW,295,23.0,38.0,45,0.00,,,0.00,0.000000,,2013-03-17 07:42:00,
2013-03-17 00:50:00,61.0,38.0,-100.00,WNW,300,24.0,37.0,43,0.00,,,0.00,0.000000,,2013-03-17 07:50:00,
2013-03-17 01:22:00,61.0,38.0,-100.00,WNW,300,24.0,37.0,43,0.00,,,0.00,0.000000,,2013-03-17 08:22:00,
2013-03-17 01:32:00,61.0,38.0,-100.00,WNW,300,24.0,37.0,43,0.00,,,0.00,0.000000,,2013-03-17 08:32:00,
2013-03-17 01:42:00,61.0,38.0,-100.00,WNW,300,24.0,37.0,43,0.00,,,0.00,0.000000,,2013-03-17 08:42:00,
2013-03-17 01:50:00,59.0,39.0,-100.00,WNW,290,26.0,38.0,47,0.00,,,0.00,0.000000,,2013-03-17 08:50:00,
2013-03-17 02:22:00,59.0,39.0,-100.00,WNW,290,26.0,38.0,47,0.00,,,0.00,0.000000,,2013-03-17 09:22:00,
2013-03-17 02:32:00,59.0,39.0,-100.00,WNW,290,26.0,38.0,47,0.00,,,0.00,0.000000,,2013-03-17 09:32:00,
2013-03-17 02:42:00,59.0,39.0,-100.00,WNW,290,26.0,38.0,47,0.00,,,0.00,0.000000,,2013-03-17 09:42:00,
2013-03-17 02:50:00,58.0,40.0,-100.00,WNW,294,31.0,49.0,52,0.00,,,0.00,0.000000,,2013-03-17 09:50:00,
2013-03-17 03:13:00,58.0,40.0,-100.00,WNW,294,31.0,49.0,52,0.00,,,0.00,0.000000,,2013-03-17 10:13:00,
2013-03-17 03:23:00,58.0,40.0,-100.00,WNW,294,31.0,49.0,52,0.00,,,0.00,0.000000,,2013-03-17 10:23:00,
2013-03-17 03:33:00,58.0,40.0,-100.00,WNW,294,31.0,49.0,52,0.00,,,0.00,0.000000,,2013-03-17 10:33:00,
2013-03-17 03:42:00,58.0,40.0,-100.00,WNW,294,31.0,49.0,52,0.00,,,0.00,0.000000,,2013-03-17 10:42:00,
2013-03-17 03:50:00,56.0,42.0,-100.00,WNW,286,34.0,47.0,60,0.00,,,0.00,0.000000,,2013-03-17 10:50:00,
2013-03-17 04:22:00,56.0,42.0,-100.00,WNW,286,34.0,47.0,60,0.00,,,0.00,0.000000,,2013-03-17 11:22:00,
2013-03-17 04:32:00,56.0,42.0,-100.00,WNW,286,34.0,47.0,60,0.00,,,0.00,0.000000,,2013-03-17 11:32:00,
2013-03-17 04:42:00,56.0,42.0,-100.00,WNW,286,34.0,47.0,60,0.00,,,0.00,0.000000,,2013-03-17 11:42:00,
2013-03-17 04:50:00,57.0,42.0,-100.00,WNW,292,30.0,50.0,58,0.00,,,0.00,0.000000,,2013-03-17 11:50:00,
2013-03-17 05:22:00,57.0,42.0,-100.00,WNW,292,30.0,50.0,58,0.00,,,0.00,0.000000,,2013-03-17 12:22:00,
2013-03-17 05:32:00,57.0,42.0,-100.00,WNW,292,30.0,50.0,58,0.00,,,0.00,0.000000,,2013-03-17 12:32:00,
2013-03-17 05:42:00,57.0,42.0,-100.00,WNW,292,30.0,50.0,58,0.00,,,0.00,0.000000,,2013-03-17 12:42:00,
2013-03-17 05:50:00,58.0,38.0,-100.00,WNW,284,28.0,43.0,48,0.00,,,0.00,0.000000,,2013-03-17 12:50:00,
2013-03-17 06:12:00,58.0,38.0,-100.00,WNW,284,28.0,43.0,48,0.00,,,0.00,0.000000,,2013-03-17 13:12:00,
2013-03-17 06:22:00,58.0,38.0,-100.00,WNW,284,28.0,43.0,48,0.00,,,0.00,0.000000,,2013-03-17 13:22:00,
2013-03-17 06:32:00,58.0,38.0,-100.00,WNW,284,28.0,43.0,48,0.00,,,0.00,0.000000,,2013-03-17 13:32:00,
2013-03-17 06:42:00,58.0,38.0,-100.00,WNW,284,28.0,43.0,48,0.00,,,0.00,0.000000,,2013-03-17 13:42:00,
2013-03-17 06:50:00,55.0,37.0,-100.00,WNW,285,26.0,40.0,51,0.00,,,0.00,0.000000,,2013-03-17 13:50:00,
2013-03-17 07:22:00,55.0,37.0,-100.00,WNW,285,26.0,40.0,51,0.00,,,0.00,0.000000,,2013-03-17 14:22:00,
2013-03-17 07:32:00,55.0,37.0,-100.00,WNW,285,26.0,40.0,51,0.00,,,0.00,0.000000,,2013-03-17 14:32:00,
2013-03-17 07:42:00,55.0,37.0,-100.00,WNW,285,26.0,40.0,51,0.00,,,0.00,0.000000,,2013-03-17 14:42:00,
2013-03-17 07:50:00,59.0,34.0,-100.00,WNW,287,23.0,36.0,39,0.00,,,0.00,86.000000,,2013-03-17 14:50:00,
2013-03-17 08:12:00,59.0,34.0,-100.00,WNW,287,23.0,36.0,39,0.00,,,0.00,86.000000,,2013-03-17 15:12:00,
2013-03-17 08:23:00,59.0,34.0,-100.00,WNW,287,23.0,36.0,39,0.00,,,0.00,86.000000,,2013-03-17 15:23:00,
2013-03-17 08:32:00,59.0,34.0,-100.00,WNW,287,23.0,36.0,39,0.00,,,0.00,86.000000,,2013-03-17 15:32:00,
2013-03-17 08:42:00,59.0,34.0,-100.00,WNW,287,23.0,36.0,39,0.00,,,0.00,86.000000,,2013-03-17 15:42:00,
2013-03-17 08:50:00,61.0,28.0,-100.00,West,281,18.0,29.0,28,0.00,,,-99.99,303.000000,,2013-03-17 15:50:00,
2013-03-17 09:12:00,61.0,28.0,-100.00,West,281,18.0,29.0,28,0.00,,,-99.99,303.000000,,2013-03-17 16:12:00,
2013-03-17 09:22:00,61.0,28.0,-100.00,West,281,18.0,29.0,28,0.00,,,-99.99,303.000000,,2013-03-17 16:22:00,
2013-03-17 09:33:00,61.0,28.0,-100.00,West,281,18.0,29.0,28,0.00,,,-99.99,303.000000,,2013-03-17 16:33:00,
2013-03-17 09:42:00,61.0,28.0,-100.00,West,281,18.0,29.0,28,0.00,,,-99.99,303.000000,,2013-03-17 16:42:00,
2013-03-17 09:50:00,65.0,30.0,-100.00,West,268,14.0,26.0,27,0.00,,,0.00,562.000000,,2013-03-17 16:50:00,
2013-03-17 10:12:00,65.0,30.0,-100.00,West,268,14.0,26.0,27,0.00,,,0.00,562.000000,,2013-03-17 17:12:00,
2013-03-17 10:22:00,65.0,30.0,-100.00,West,268,14.0,26.0,27,0.00,,,0.00,562.000000,,2013-03-17 17:22:00,
2013-03-17 10:33:00,65.0,30.0,-100.00,West,268,14.0,26.0,27,0.00,,,0.00,562.000000,,2013-03-17 17:33:00,
2013-03-17 10:42:00,65.0,30.0,-100.00,West,268,14.0,26.0,27,0.00,,,0.00,562.000000,,2013-03-17 17:42:00,
2013-03-17 10:50:00,69.0,32.0,-100.00,WNW,290,8.0,17.0,25,0.00,,,0.00,797.000000,,2013-03-17 17:50:00,
2013-03-17 11:22:00,69.0,32.0,-100.00,WNW,290,8.0,17.0,25,0.00,,,0.00,797.000000,,2013-03-17 18:22:00,
2013-03-17 11:32:00,69.0,32.0,-100.00,WNW,290,8.0,17.0,25,0.00,,,0.00,797.000000,,2013-03-17 18:32:00,
2013-03-17 11:42:00,69.0,32.0,-100.00,WNW,290,8.0,17.0,25,0.00,,,0.00,797.000000,,2013-03-17 18:42:00,
2013-03-17 11:50:00,74.0,33.0,-100.00,West,265,6.0,14.0,22,0.00,,,0.00,989.000000,,2013-03-17 18:50:00,
2013-03-17 12:22:00,74.0,33.0,-100.00,West,265,6.0,14.0,22,0.00,,,0.00,989.000000,,2013-03-17 19:22:00,
2013-03-17 12:32:00,74.0,33.0,-100.00,West,265,6.0,14.0,22,0.00,,,0.00,989.000000,,2013-03-17 19:32:00,
2013-03-17 12:41:00,74.0,33.0,-100.00,West,265,6.0,14.0,22,0.00,,,0.00,989.000000,,2013-03-17 19:41:00,
2013-03-17 12:50:00,76.0,29.0,-100.00,WSW,253,7.0,14.0,18,0.00,,,0.00,1038.000000,,2013-03-17 19:50:00,
2013-03-17 13:12:00,76.0,29.0,-100.00,WSW,253,7.0,14.0,18,0.00,,,0.00,1038.000000,,2013-03-17 20:12:00,
2013-03-17 13:22:00,76.0,29.0,-100.00,WSW,253,7.0,14.0,18,0.00,,,0.00,1038.000000,,2013-03-17 20:22:00,
2013-03-17 13:32:00,76.0,29.0,-100.00,WSW,253,7.0,14.0,18,0.00,,,0.00,1038.000000,,2013-03-17 20:32:00,
2013-03-17 13:42:00,76.0,29.0,-100.00,WSW,253,7.0,14.0,18,0.00,,,0.00,1038.000000,,2013-03-17 20:42:00,
2013-03-17 13:50:00,75.0,30.0,-100.00,WSW,256,9.0,16.0,19,0.00,,,0.00,1044.000000,,2013-03-17 20:50:00,
2013-03-17 14:12:00,75.0,30.0,-100.00,WSW,256,9.0,16.0,19,0.00,,,0.00,1044.000000,,2013-03-17 21:12:00,
2013-03-17 14:22:00,75.0,30.0,-100.00,WSW,256,9.0,16.0,19,0.00,,,0.00,1044.000000,,2013-03-17 21:22:00,
2013-03-17 14:33:00,75.0,30.0,-100.00,WSW,256,9.0,16.0,19,0.00,,,0.00,1044.000000,,2013-03-17 21:33:00,
2013-03-17 14:42:00,75.0,30.0,-100.00,WSW,256,9.0,16.0,19,0.00,,,0.00,1044.000000,,2013-03-17 21:42:00,
2013-03-17 14:50:00,74.0,37.0,-100.00,West,280,18.0,28.0,26,0.00,,,0.00,983.000000,,2013-03-17 21:50:00,
2013-03-17 15:12:00,74.0,37.0,-100.00,West,280,18.0,28.0,26,0.00,,,0.00,983.000000,,2013-03-17 22:12:00,
2013-03-17 15:23:00,74.0,37.0,-100.00,West,280,18.0,28.0,26,0.00,,,0.00,983.000000,,2013-03-17 22:23:00,
2013-03-17 15:33:00,74.0,37.0,-100.00,West,280,18.0,28.0,26,0.00,,,0.00,983.000000,,2013-03-17 22:33:00,
2013-03-17 15:42:00,74.0,37.0,-100.00,West,280,18.0,28.0,26,0.00,,,0.00,983.000000,,2013-03-17 22:42:00,
2013-03-17 15:50:00,74.0,39.0,-100.00,West,280,19.0,31.0,28,0.00,,,0.00,756.000000,,2013-03-17 22:50:00,
2013-03-17 16:22:00,74.0,39.0,-100.00,West,280,19.0,31.0,28,0.00,,,0.00,756.000000,,2013-03-17 23:22:00,
2013-03-17 16:32:00,74.0,39.0,-100.00,West,280,19.0,31.0,28,0.00,,,0.00,756.000000,,2013-03-17 23:32:00,
2013-03-17 16:42:00,74.0,39.0,-100.00,West,280,19.0,31.0,28,0.00,,,0.00,756.000000,,2013-03-17 23:42:00,
2013-03-17 16:50:00,73.0,41.0,-100.00,West,279,19.0,32.0,31,0.00,,,0.00,603.000000,,2013-03-17 23:50:00,
2013-03-17 17:12:00,73.0,41.0,-100.00,West,279,19.0,32.0,31,0.00,,,0.00,603.000000,,2013-03-18 00:12:00,
2013-03-17 17:22:00,73.0,41.0,-100.00,West,279,19.0,32.0,31,0.00,,,0.00,603.000000,,2013-03-18 00:22:00,
2013-03-17 17:32:00,73.0,41.0,-100.00,West,279,19.0,32.0,31,0.00,,,0.00,603.000000,,2013-03-18 00:32:00,
2013-03-17 17:42:00,73.0,41.0,-100.00,West,279,19.0,32.0,31,0.00,,,0.00,603.000000,,2013-03-18 00:42:00,
2013-03-17 17:50:00,70.0,39.0,-100.00,West,281,23.0,34.0,32,0.00,,,0.00,364.000000,,2013-03-18 00:50:00,
2013-03-17 18:12:00,70.0,39.0,-100.00,West,281,23.0,34.0,32,0.00,,,0.00,364.000000,,2013-03-18 01:12:00,
2013-03-17 18:22:00,70.0,39.0,-100.00,West,281,23.0,34.0,32,0.00,,,0.00,364.000000,,2013-03-18 01:22:00,
2013-03-17 18:32:00,70.0,39.0,-100.00,West,281,23.0,34.0,32,0.00,,,0.00,364.000000,,2013-03-18 01:32:00,
2013-03-17 18:42:00,70.0,39.0,-100.00,West,281,23.0,34.0,32,0.00,,,0.00,364.000000,,2013-03-18 01:42:00,
2013-03-17 18:50:00,65.0,36.0,-100.00,WNW,283,29.0,42.0,34,0.00,,,0.00,54.000000,,2013-03-18 01:50:00,
2013-03-17 19:12:00,65.0,36.0,-100.00,WNW,283,29.0,42.0,34,0.00,,,0.00,54.000000,,2013-03-18 02:12:00,
2013-03-17 19:22:00,65.0,36.0,-100.00,WNW,283,29.0,42.0,34,0.00,,,0.00,54.000000,,2013-03-18 02:22:00,
2013-03-17 19:42:00,65.0,36.0,-100.00,WNW,283,29.0,42.0,34,0.00,,,0.00,54.000000,,2013-03-18 02:42:00,
2013-03-17 19:50:00,63.0,37.0,-100.00,WNW,287,27.0,39.0,38,0.00,,,0.00,1.000000,,2013-03-18 02:50:00,
2013-03-17 20:11:00,63.0,37.0,-100.00,WNW,287,27.0,39.0,38,0.00,,,0.00,1.000000,,2013-03-18 03:11:00,
2013-03-17 20:22:00,63.0,37.0,-100.00,WNW,287,27.0,39.0,38,0.00,,,0.00,1.000000,,2013-03-18 03:22:00,
2013-03-17 20:32:00,63.0,37.0,-100.00,WNW,287,27.0,39.0,38,0.00,,,0.00,1.000000,,2013-03-18 03:32:00,
2013-03-17 20:42:00,63.0,37.0,-100.00,WNW,287,27.0,39.0,38,0.00,,,0.00,1.000000,,2013-03-18 03:42:00,
2013-03-17 20:50:00,63.0,44.0,-100.00,WNW,286,25.0,38.0,49,0.00,,,0.00,0.000000,,2013-03-18 03:50:00,
2013-03-17 21:13:00,63.0,44.0,-100.00,WNW,286,25.0,38.0,49,0.00,,,0.00,0.000000,,2013-03-18 04:13:00,
2013-03-17 21:22:00,63.0,44.0,-100.00,WNW,286,25.0,38.0,49,0.00,,,0.00,0.000000,,2013-03-18 04:22:00,
2013-03-17 21:33:00,63.0,44.0,-100.00,WNW,286,25.0,38.0,49,0.00,,,0.00,0.000000,,2013-03-18 04:33:00,
2013-03-17 21:42:00,63.0,44.0,-100.00,WNW,286,25.0,38.0,49,0.00,,,0.00,0.000000,,2013-03-18 04:42:00,
2013-03-17 21:50:00,62.0,36.0,-100.00,West,274,17.0,33.0,38,0.00,,,0.00,0.000000,,2013-03-18 04:50:00,
2013-03-17 22:22:00,62.0,36.0,-100.00,West,274,17.0,33.0,38,0.00,,,0.00,0.000000,,2013-03-18 05:22:00,
2013-03-17 22:32:00,62.0,36.0,-100.00,West,274,17.0,33.0,38,0.00,,,0.00,0.000000,,2013-03-18 05:32:00,
2013-03-17 22:43:00,62.0,36.0,-100.00,West,274,17.0,33.0,38,0.00,,,0.00,0.000000,,2013-03-18 05:43:00,
2013-03-17 22:50:00,62.0,37.0,-100.00,West,280,23.0,33.0,40,0.00,,,0.00,0.000000,,2013-03-18 05:50:00,
2013-03-17 23:22:00,62.0,37.0,-100.00,West,280,23.0,33.0,40,0.00,,,0.00,0.000000,,2013-03-18 06:22:00,
2013-03-17 23:32:00,62.0,37.0,-100.00,West,280,23.0,33.0,40,0.00,,,0.00,0.000000,,2013-03-18 06:32:00,
2013-03-17 23:42:00,62.0,37.0,-100.00,West,280,23.0,33.0,40,0.00,,,0.00,0.000000,,2013-03-18 06:42:00,
2013-03-17 23:50:00,61.0,41.0,-100.00,WNW,283,26.0,39.0,48,0.00,,,0.00,0.000000,,2013-03-18 06:50:00,